Terminal Aerodrome Forecast
Issued by NWS Central Illinois

Home | Current Version | Previous Version | Text Only | Print | Product List | Glossary On
Versions: 1 2 3 4 5 6 7 8 9 10 11 12 13 14 15 16 17 18 19 20 21 22 23 24 25
000
FTUS43 KILX 271100
TAFSPI
TAF
KSPI 271130Z 2712/2812 36010KT P6SM SCT015 OVC035
      TEMPO 2712/2715 4SM BR OVC015
     FM271500 02006KT 5SM BR SCT006 OVC015
     FM272100 04008KT P6SM OVC015
     FM280200 VRB03KT P6SM BKN020=

USA.gov is the U.S. government's official web portal to all federal, state and local government web resources and services.